createdAt,value
2023-01-07T00:01:30.681Z,40.75
2023-01-07T00:04:33.642Z,41.60
2023-01-07T00:07:36.234Z,38.78
2023-01-07T00:10:39.173Z,44.08
2023-01-07T00:13:42.299Z,48.70
2023-01-07T00:16:45.162Z,40.15
2023-01-07T00:19:47.670Z,39.08
2023-01-07T00:22:51.381Z,43.75
2023-01-07T00:26:04.175Z,39.60
2023-01-07T00:29:07.785Z,42.33
2023-01-07T00:32:10.312Z,46.10
2023-01-07T00:35:25.352Z,40.60
2023-01-07T00:38:28.535Z,39.88
2023-01-07T00:41:31.795Z,44.17
2023-01-07T00:44:35.172Z,42.00
2023-01-07T00:47:38.007Z,45.05
2023-01-07T00:50:41.022Z,44.03
2023-01-07T00:53:44.368Z,43.03
2023-01-07T00:56:47.325Z,39.85
2023-01-07T00:59:50.310Z,41.85
2023-01-07T01:02:53.495Z,41.70
2023-01-07T01:06:04.898Z,39.72
2023-01-07T01:12:10.378Z,40.65
2023-01-07T01:15:14.719Z,44.40
2023-01-07T01:18:17.791Z,46.45
2023-01-07T01:21:21.209Z,36.22
2023-01-07T01:24:24.135Z,46.05
2023-01-07T01:27:26.658Z,41.08
2023-01-07T01:30:29.710Z,43.50
2023-01-07T01:33:33.050Z,44.05
2023-01-07T01:36:36.063Z,36.65
2023-01-07T01:39:38.753Z,43.35
2023-01-07T01:42:41.950Z,44.22
2023-01-07T01:45:46.329Z,39.10
2023-01-07T01:48:56.481Z,40.17
2023-01-07T01:52:29.973Z,34.28
2023-01-07T01:55:40.202Z,41.20
2023-01-07T01:58:49.872Z,36.90
2023-01-07T02:01:53.664Z,41.13
2023-01-07T02:04:57.927Z,41.47
2023-01-07T02:08:00.550Z,43.63
2023-01-07T02:11:13.144Z,39.75
2023-01-07T02:14:34.599Z,38.45
2023-01-07T02:18:02.216Z,39.20
2023-01-07T02:21:50.307Z,36.63
2023-01-07T02:25:21.203Z,32.67
2023-01-07T02:28:33.020Z,38.17
2023-01-07T02:32:00.039Z,41.28
2023-01-07T02:35:05.470Z,41.13
2023-01-07T02:38:14.176Z,39.05
2023-01-07T02:41:44.608Z,37.55
2023-01-07T02:45:20.335Z,36.08
2023-01-07T02:48:23.862Z,39.75
2023-01-07T02:51:37.703Z,37.70
2023-01-07T02:54:40.399Z,43.53
2023-01-07T02:57:52.117Z,41.97
2023-01-07T03:01:22.610Z,40.17
2023-01-07T03:04:42.283Z,41.60
2023-01-07T03:07:47.629Z,38.15
2023-01-07T03:11:02.623Z,41.05
2023-01-07T03:14:39.743Z,44.25
2023-01-07T03:17:52.015Z,41.90
2023-01-07T03:20:59.633Z,38.50
2023-01-07T03:24:03.327Z,45.25
2023-01-07T03:27:07.922Z,46.45
2023-01-07T03:30:15.936Z,47.97
2023-01-07T03:33:25.917Z,45.10
2023-01-07T03:36:38.443Z,44.53
2023-01-07T03:39:44.113Z,42.88
2023-01-07T03:42:49.085Z,43.70
2023-01-07T03:45:54.259Z,37.15
2023-01-07T03:48:57.240Z,39.35
2023-01-07T03:52:00.131Z,43.55
2023-01-07T03:55:04.986Z,42.90
2023-01-07T03:58:08.236Z,44.05
2023-01-07T04:01:11.210Z,47.25
2023-01-07T04:04:14.192Z,45.08
2023-01-07T04:07:17.151Z,39.08
2023-01-07T04:10:20.714Z,44.17
2023-01-07T04:13:23.655Z,36.80
2023-01-07T04:16:27.342Z,41.33
2023-01-07T04:19:30.677Z,43.03
2023-01-07T04:22:34.399Z,43.42
2023-01-07T04:25:37.057Z,44.53
2023-01-07T04:28:41.012Z,43.22
2023-01-07T04:31:43.760Z,44.92
2023-01-07T04:34:46.884Z,43.97
2023-01-07T04:37:49.664Z,37.67
2023-01-07T04:40:52.678Z,41.42
2023-01-07T04:43:55.326Z,42.90
2023-01-07T04:46:58.163Z,40.17
2023-01-07T04:50:01.098Z,41.63
2023-01-07T04:53:05.314Z,42.50
2023-01-07T04:56:08.744Z,48.28
2023-01-07T04:59:11.827Z,43.97
2023-01-07T05:02:14.564Z,41.15
2023-01-07T05:05:18.048Z,41.72
2023-01-07T05:08:21.484Z,43.78
2023-01-07T05:11:24.559Z,41.20
2023-01-07T05:14:27.754Z,45.40
2023-01-07T05:17:31.694Z,41.00
2023-01-07T05:20:34.872Z,44.00
2023-01-07T05:23:38.525Z,44.15
2023-01-07T05:26:41.161Z,44.42
2023-01-07T05:29:44.171Z,43.97
2023-01-07T05:32:47.109Z,41.53
2023-01-07T05:35:50.244Z,43.40
2023-01-07T05:38:53.518Z,43.92
2023-01-07T05:41:56.578Z,46.13
2023-01-07T05:44:59.271Z,48.22
2023-01-07T05:48:02.180Z,44.97
2023-01-07T05:51:05.018Z,38.58
2023-01-07T05:54:08.822Z,47.20
2023-01-07T05:57:11.380Z,45.72
2023-01-07T06:00:14.746Z,46.92
2023-01-07T06:03:17.558Z,49.03
2023-01-07T06:06:20.099Z,44.22
2023-01-07T06:09:23.196Z,45.05
2023-01-07T06:12:25.817Z,46.70
2023-01-07T06:15:28.884Z,50.20
2023-01-07T06:18:31.578Z,48.87
2023-01-07T06:21:34.365Z,47.53
2023-01-07T06:24:36.941Z,44.35
2023-01-07T06:27:42.588Z,42.67
2023-01-07T06:30:46.355Z,45.22
2023-01-07T06:33:49.985Z,51.53
2023-01-07T06:36:52.479Z,46.10
2023-01-07T06:39:55.315Z,50.03
2023-01-07T06:42:57.947Z,50.75
2023-01-07T06:46:00.944Z,52.30
2023-01-07T06:49:04.113Z,50.08
2023-01-07T06:52:06.969Z,50.15
2023-01-07T06:55:09.999Z,48.72
2023-01-07T06:58:13.088Z,46.90
2023-01-07T07:01:16.087Z,44.00
2023-01-07T07:04:19.208Z,50.45
2023-01-07T07:07:22.100Z,52.17
2023-01-07T07:10:24.947Z,49.55
2023-01-07T07:13:27.481Z,46.58
2023-01-07T07:16:32.590Z,47.72
2023-01-07T07:19:35.388Z,44.67
2023-01-07T07:22:38.347Z,50.38
2023-01-07T07:25:40.902Z,42.13
2023-01-07T07:28:44.743Z,49.33
2023-01-07T07:31:47.325Z,44.30
2023-01-07T07:34:50.141Z,46.25
2023-01-07T07:37:52.753Z,42.60
2023-01-07T07:40:56.794Z,48.75
2023-01-07T07:43:59.420Z,46.15
2023-01-07T07:47:02.259Z,47.05
2023-01-07T07:50:05.283Z,51.78
2023-01-07T07:53:10.349Z,43.65
2023-01-07T07:56:13.002Z,46.75
2023-01-07T07:59:15.994Z,45.47
2023-01-07T08:02:19.430Z,44.20
2023-01-07T08:05:22.403Z,44.40
2023-01-07T08:08:24.938Z,45.75
2023-01-07T08:11:27.824Z,41.60
2023-01-07T08:14:30.473Z,43.03
2023-01-07T08:17:34.038Z,41.85
2023-01-07T08:20:37.320Z,47.88
2023-01-07T08:23:40.398Z,41.92
2023-01-07T08:26:43.162Z,46.33
2023-01-07T08:29:46.418Z,47.22
2023-01-07T08:32:49.104Z,38.45
2023-01-07T08:35:52.031Z,42.88
2023-01-07T08:38:56.550Z,45.78
2023-01-07T08:41:59.743Z,47.60
2023-01-07T08:45:02.456Z,41.72
2023-01-07T08:48:05.820Z,41.17
2023-01-07T08:51:08.453Z,46.60
2023-01-07T08:54:11.309Z,46.55
2023-01-07T08:57:14.177Z,43.40
2023-01-07T09:00:18.519Z,42.65
2023-01-07T09:03:21.113Z,44.67
2023-01-07T09:06:24.018Z,45.35
2023-01-07T09:09:26.806Z,39.40
2023-01-07T09:12:30.128Z,40.75
2023-01-07T09:15:32.812Z,40.28
2023-01-07T09:18:35.845Z,47.67
2023-01-07T09:21:38.712Z,38.15
2023-01-07T09:24:41.568Z,37.17
2023-01-07T09:27:45.718Z,42.45
2023-01-07T09:30:48.575Z,37.67
2023-01-07T09:33:51.562Z,38.33
2023-01-07T09:36:54.502Z,35.60
2023-01-07T09:39:57.030Z,32.15
2023-01-07T09:43:16.350Z,33.22
2023-01-07T09:46:19.615Z,26.45
2023-01-07T09:49:25.787Z,25.00
2023-01-07T09:52:37.030Z,24.92
2023-01-07T09:56:11.848Z,29.25
2023-01-07T09:59:07.510Z,25.02
2023-01-07T10:02:44.362Z,25.15
2023-01-07T10:06:01.687Z,22.98
2023-01-07T10:09:28.420Z,22.33
2023-01-07T10:12:36.753Z,23.98
2023-01-07T10:15:45.140Z,24.77
2023-01-07T10:19:14.968Z,28.02
2023-01-07T10:22:22.779Z,27.00
2023-01-07T10:25:30.041Z,29.35
2023-01-07T10:28:40.974Z,33.33
2023-01-07T10:31:45.637Z,29.40
2023-01-07T10:34:50.825Z,32.40
2023-01-07T10:38:00.468Z,32.17
2023-01-07T10:41:13.003Z,33.53
2023-01-07T10:44:48.633Z,33.70
2023-01-07T10:48:25.412Z,30.37
2023-01-07T10:52:05.474Z,35.50
2023-01-07T10:55:43.464Z,32.00
2023-01-07T10:58:48.355Z,32.80
2023-01-07T11:01:54.675Z,32.85
2023-01-07T11:04:59.284Z,36.45
2023-01-07T11:08:04.769Z,34.28
2023-01-07T11:11:15.579Z,29.00
2023-01-07T11:14:27.886Z,29.83
2023-01-07T11:17:45.404Z,29.27
2023-01-07T11:20:53.946Z,29.65
2023-01-07T11:23:56.897Z,30.83
2023-01-07T11:27:03.111Z,29.27
2023-01-07T11:30:07.499Z,26.10
2023-01-07T11:33:22.379Z,24.05
2023-01-07T11:36:43.104Z,28.70
2023-01-07T11:39:59.071Z,28.33
2023-01-07T11:43:20.347Z,28.92
2023-01-07T11:46:25.884Z,33.95
2023-01-07T11:49:31.104Z,30.02
2023-01-07T11:52:33.743Z,28.67
2023-01-07T11:55:36.525Z,30.10
2023-01-07T11:58:43.392Z,30.75
2023-01-07T12:01:57.196Z,31.62
2023-01-07T12:05:23.344Z,29.12
2023-01-07T12:08:27.327Z,27.70
2023-01-07T12:11:34.527Z,27.13
2023-01-07T12:14:39.062Z,22.35
2023-01-07T12:17:46.424Z,16.15
2023-01-07T12:21:10.512Z,19.50
2023-01-07T12:24:32.923Z,16.35
2023-01-07T12:27:44.521Z,19.58
2023-01-07T12:31:09.920Z,16.48
2023-01-07T12:34:18.193Z,27.85
2023-01-07T12:37:33.201Z,31.48
2023-01-07T12:40:44.836Z,35.88
2023-01-07T12:43:57.873Z,34.38
2023-01-07T12:47:31.026Z,21.73
2023-01-07T12:50:44.111Z,22.95
2023-01-07T12:54:00.149Z,27.73
2023-01-07T12:57:30.483Z,35.17
2023-01-07T13:00:44.273Z,46.13
2023-01-07T13:03:58.990Z,44.40
2023-01-07T13:07:10.128Z,38.72
2023-01-07T13:10:24.679Z,30.75
2023-01-07T13:13:38.034Z,33.55
2023-01-07T13:16:40.855Z,31.48
2023-01-07T13:19:44.159Z,34.63
2023-01-07T13:22:53.420Z,32.40
2023-01-07T13:25:55.904Z,34.42
2023-01-07T13:29:19.179Z,29.45
2023-01-07T13:32:49.487Z,32.92
2023-01-07T13:36:03.339Z,30.58
2023-01-07T13:39:33.849Z,29.33
2023-01-07T13:42:43.499Z,22.98
2023-01-07T13:46:11.555Z,26.67
2023-01-07T13:49:32.896Z,24.92
2023-01-07T13:55:40.975Z,24.85
2023-01-07T13:58:55.338Z,19.23
2023-01-07T14:02:17.502Z,23.25
2023-01-07T14:05:26.558Z,20.70
2023-01-07T14:08:29.357Z,23.77
2023-01-07T14:11:32.691Z,22.48
2023-01-07T14:14:35.208Z,23.23
2023-01-07T14:18:09.633Z,26.12
2023-01-07T14:21:37.152Z,23.55
2023-01-07T14:25:13.521Z,21.73
2023-01-07T14:28:39.556Z,24.87
2023-01-07T14:31:43.224Z,26.08
2023-01-07T14:34:55.633Z,23.85
2023-01-07T14:37:58.504Z,24.73
2023-01-07T14:41:17.987Z,28.23
2023-01-07T14:44:27.810Z,25.50
2023-01-07T14:47:45.713Z,24.30
2023-01-07T14:51:27.304Z,26.87
2023-01-07T14:54:33.085Z,30.37
2023-01-07T14:57:57.667Z,28.38
2023-01-07T15:01:22.105Z,28.35
2023-01-07T15:05:00.685Z,31.10
2023-01-07T15:08:27.455Z,26.08
2023-01-07T15:11:50.101Z,34.33
2023-01-07T15:15:23.954Z,35.67
2023-01-07T15:18:54.054Z,38.33
2023-01-07T15:22:22.178Z,38.92
2023-01-07T15:25:29.594Z,37.22
2023-01-07T15:28:42.676Z,36.10
2023-01-07T15:32:21.002Z,40.05
2023-01-07T15:35:28.765Z,40.63
2023-01-07T15:38:38.187Z,40.97
2023-01-07T15:41:42.069Z,39.50
2023-01-07T15:44:49.500Z,40.72
2023-01-07T15:47:52.076Z,43.50
2023-01-07T15:50:55.186Z,43.20
2023-01-07T15:53:58.028Z,40.80
2023-01-07T15:57:12.950Z,42.88
2023-01-07T16:00:16.383Z,45.50
2023-01-07T16:03:21.418Z,53.20
2023-01-07T16:06:33.835Z,45.65
2023-01-07T16:09:36.745Z,47.45
2023-01-07T16:12:39.696Z,47.97
2023-01-07T16:15:42.621Z,50.55
2023-01-07T16:18:54.602Z,46.63
2023-01-07T16:21:59.803Z,41.75
2023-01-07T16:25:11.356Z,44.08
2023-01-07T16:28:21.825Z,44.25
2023-01-07T16:31:27.208Z,48.90
2023-01-07T16:34:30.337Z,48.10
2023-01-07T16:37:38.475Z,51.67
2023-01-07T16:40:42.183Z,47.97
2023-01-07T16:43:44.993Z,56.17
2023-01-07T16:47:06.229Z,49.25
2023-01-07T16:50:14.718Z,48.40
2023-01-07T16:53:23.999Z,45.95
2023-01-07T16:56:26.845Z,46.33
2023-01-07T16:59:41.126Z,49.25
2023-01-07T17:02:57.179Z,47.97
2023-01-07T17:06:05.836Z,54.10
2023-01-07T17:09:28.892Z,53.40
2023-01-07T17:12:40.007Z,51.78
2023-01-07T17:15:43.731Z,50.75
2023-01-07T17:18:46.696Z,53.53
2023-01-07T17:21:49.258Z,54.60
2023-01-07T17:24:52.101Z,52.83
2023-01-07T17:27:58.814Z,55.05
2023-01-07T17:31:01.968Z,57.92
2023-01-07T17:34:04.587Z,55.33
2023-01-07T17:37:13.074Z,56.88
2023-01-07T17:40:16.334Z,58.63
2023-01-07T17:43:36.957Z,58.33
2023-01-07T17:46:40.640Z,57.05
2023-01-07T17:49:43.575Z,55.15
2023-01-07T17:52:48.724Z,55.90
2023-01-07T17:55:52.835Z,64.37
2023-01-07T17:58:58.334Z,58.72
2023-01-07T18:02:02.111Z,59.10
2023-01-07T18:05:14.746Z,57.60
2023-01-07T18:08:18.711Z,55.95
2023-01-07T18:11:43.345Z,58.33
2023-01-07T18:14:45.877Z,56.83
2023-01-07T18:17:49.024Z,57.65
2023-01-07T18:20:54.121Z,56.33
2023-01-07T18:23:59.389Z,54.95
2023-01-07T18:27:02.254Z,55.45
2023-01-07T18:30:05.751Z,58.28
2023-01-07T18:33:10.723Z,59.63
2023-01-07T18:36:13.599Z,58.45
2023-01-07T18:39:19.941Z,56.58
2023-01-07T18:42:23.409Z,58.17
2023-01-07T18:45:34.736Z,54.97
2023-01-07T18:48:53.860Z,59.30
2023-01-07T18:51:56.616Z,55.97
2023-01-07T18:54:59.649Z,53.92
2023-01-07T18:58:03.273Z,56.65
2023-01-07T19:01:07.691Z,55.90
2023-01-07T19:04:11.328Z,57.88
2023-01-07T19:07:14.477Z,59.17
2023-01-07T19:10:17.721Z,58.58
2023-01-07T19:13:20.616Z,60.05
2023-01-07T19:16:23.584Z,58.47
2023-01-07T19:19:27.444Z,55.35
2023-01-07T19:22:30.312Z,60.50
2023-01-07T19:25:32.960Z,55.90
2023-01-07T19:28:35.963Z,52.33
2023-01-07T19:31:38.691Z,52.55
2023-01-07T19:34:41.856Z,54.33
2023-01-07T19:37:44.586Z,53.70
2023-01-07T19:40:47.598Z,52.83
2023-01-07T19:43:53.585Z,56.37
2023-01-07T19:46:56.406Z,50.63
2023-01-07T19:49:59.078Z,54.58
2023-01-07T19:53:02.108Z,56.33
2023-01-07T19:56:08.720Z,49.42
2023-01-07T19:59:11.758Z,53.45
2023-01-07T20:02:14.668Z,54.08
2023-01-07T20:05:17.814Z,61.17
2023-01-07T20:08:20.336Z,53.25
2023-01-07T20:11:24.259Z,52.17
2023-01-07T20:14:26.980Z,56.10
2023-01-07T20:17:29.915Z,59.22
2023-01-07T20:20:32.580Z,52.97
2023-01-07T20:23:40.053Z,56.50
2023-01-07T20:26:42.779Z,60.33
2023-01-07T20:29:45.813Z,52.30
2023-01-07T20:32:48.404Z,54.60
2023-01-07T20:36:06.200Z,58.70
2023-01-07T20:39:09.861Z,61.72
2023-01-07T20:42:13.332Z,55.15
2023-01-07T20:45:15.973Z,58.80
2023-01-07T20:48:19.319Z,54.72
2023-01-07T20:51:22.394Z,66.15
2023-01-07T20:54:25.329Z,64.87
2023-01-07T20:57:27.997Z,56.30
2023-01-07T21:00:30.938Z,67.47
2023-01-07T21:03:34.624Z,67.53
2023-01-07T21:06:37.623Z,65.45
2023-01-07T21:09:41.742Z,61.50
2023-01-07T21:12:46.645Z,64.47
2023-01-07T21:15:49.728Z,64.32
2023-01-07T21:18:52.787Z,64.20
2023-01-07T21:21:55.477Z,61.25
2023-01-07T21:24:58.348Z,65.43
2023-01-07T21:28:02.186Z,62.72
2023-01-07T21:31:08.932Z,57.08
2023-01-07T21:34:11.948Z,61.03
2023-01-07T21:37:14.853Z,62.53
2023-01-07T21:40:17.627Z,69.78
2023-01-07T21:43:20.516Z,65.43
2023-01-07T21:46:23.349Z,70.40
2023-01-07T21:49:26.408Z,67.90
2023-01-07T21:52:29.024Z,72.32
2023-01-07T21:55:31.883Z,70.28
2023-01-07T21:58:36.009Z,71.32
2023-01-07T22:01:39.287Z,73.55
2023-01-07T22:04:42.286Z,70.47
2023-01-07T22:07:44.842Z,76.12
2023-01-07T22:10:48.418Z,83.72
2023-01-07T22:13:56.140Z,81.35
2023-01-07T22:16:58.980Z,74.50
2023-01-07T22:20:01.597Z,79.18
2023-01-07T22:23:04.916Z,81.90
2023-01-07T22:26:08.277Z,85.07
2023-01-07T22:29:12.157Z,81.15
2023-01-07T22:32:14.756Z,78.50
2023-01-07T22:35:17.625Z,82.55
2023-01-07T22:38:22.558Z,83.85
2023-01-07T22:41:29.173Z,83.03
2023-01-07T22:44:40.392Z,90.15
2023-01-07T22:47:48.865Z,87.35
2023-01-07T22:50:57.876Z,74.53
2023-01-07T22:54:00.988Z,80.55
2023-01-07T22:57:06.786Z,79.35
2023-01-07T23:00:34.913Z,92.80
2023-01-07T23:03:37.637Z,83.40
2023-01-07T23:06:40.633Z,90.22
2023-01-07T23:09:43.220Z,86.43
2023-01-07T23:12:46.204Z,79.05
2023-01-07T23:15:48.791Z,92.40
2023-01-07T23:18:51.631Z,81.55
2023-01-07T23:21:55.364Z,81.05
2023-01-07T23:24:58.195Z,75.32
2023-01-07T23:28:00.840Z,93.95
2023-01-07T23:31:03.753Z,83.45
2023-01-07T23:34:06.687Z,78.95
2023-01-07T23:37:09.622Z,89.68
2023-01-07T23:40:12.489Z,87.55
2023-01-07T23:43:15.577Z,84.18
2023-01-07T23:46:18.188Z,81.85
2023-01-07T23:49:21.242Z,79.28
2023-01-07T23:52:24.469Z,88.45
2023-01-07T23:55:27.386Z,86.47
2023-01-07T23:58:31.095Z,80.93
